• Join FlightAware (Why Join?)
  • Login
  • US Flag 
11:00PM EST


 

Airport Tracker/Info


-or-


 

Live Flight TrackerFlight Track Log ✈ UAL4663 ✈ 15-Apr-2013 ✈ KRDU - KEWR

Flight Track Log - Related Links

Times and Time Zones

All times are in EDT time to prevent confusion due to time zone crossing. See the UAL4663 flight status page for this flight to view local times or setup timezone preferences in your user account.

Time Position Orientation Groundspeed Altitude Reporting Facility
EDT Latitude Longitude Course Direction KTS MPH feet Rate Location/Type
07:29PM 35.9136 -78.7669 32° Northeast 180 207 1,900  Level Washington Center
07:30PM 35.9833 -78.7339 21° North 258 297 3,900 2,220 Climbing Washington Center
07:32PM 36.1139 -78.6903 15° North 273 314 8,600 2,400 Climbing Washington Center
07:33PM 36.1769 -78.6694 15° North 265 305 10,800 1,620 Climbing Washington Center
07:34PM 36.2697 -78.6397 14° North 293 337 11,900 960 Climbing Washington Center
07:35PM 36.3539 -78.6119 15° North 333 383 12,800 1,140 Climbing Washington Center
07:36PM 36.4611 -78.5747 16° North 350 403 14,200 1,320 Climbing Washington Center
07:37PM 36.5578 -78.5425 15° North 361 415 15,500 1,140 Climbing Washington Center
07:38PM 36.6611 -78.5075 15° North 366 421 16,500 1,080 Climbing Washington Center
07:39PM 36.7600 -78.4619 20° North 366 421 17,700 960 Climbing Washington Center
07:40PM 36.8431 -78.3950 33° Northeast 371 427 18,500 900 Climbing Washington Center
07:41PM 36.9344 -78.3203 33° Northeast 383 441 19,500 900 Climbing Washington Center
07:42PM 37.0322 -78.2431 32° Northeast 402 463 20,400 840 Climbing Washington Center
07:43PM 37.1278 -78.1603 35° Northeast 407 468 21,300 900 Climbing Washington Center
07:44PM 37.2256 -78.0828 32° Northeast 407 468 22,300 960 Climbing Washington Center
07:45PM 37.3231 -77.9997 34° Northeast 412 474 23,300 960 Climbing Washington Center
07:46PM 37.4228 -77.9192 33° Northeast 418 481 24,300 900 Climbing Washington Center
07:47PM 37.5203 -77.8358 34° Northeast 424 488 25,200 900 Climbing Washington Center
07:48PM 37.6178 -77.7469 36° Northeast 424 488 26,200 900 Climbing Washington Center
07:49PM 37.7133 -77.6631 35° Northeast 424 488 27,000 360 Climbing Washington Center
07:50PM 37.8128 -77.5711 36° Northeast 429 494 27,000  Level Washington Center
07:51PM 37.9144 -77.4764 36° Northeast 441 507 27,000  Level Washington Center
07:52PM 38.0181 -77.3814 36° Northeast 446 513 27,000  Level Washington Center
07:53PM 38.1258 -77.2864 35° Northeast 457 526 27,000  Level Washington Center
07:54PM 38.2294 -77.1883 37° Northeast 457 526 27,000  Level Washington Center
07:55PM 38.3347 -77.0925 36° Northeast 463 533 27,000  Level Washington Center
07:56PM 38.4531 -76.9836 36° Northeast 463 533 27,000  Level Washington Center
07:57PM 38.5583 -76.8872 36° Northeast 463 533 27,000  Level Washington Center
07:58PM 38.6614 -76.7881 37° Northeast 458 527 27,000  Level Washington Center
07:59PM 38.7603 -76.6858 39° Northeast 458 527 27,000  Level Washington Center
08:00PM 38.8489 -76.5778 44° Northeast 450 518 27,000  Level Washington Center
08:01PM 38.9497 -76.4672 40° Northeast 448 516 27,000  Level Washington Center
08:02PM 39.0422 -76.3586 42° Northeast 448 516 27,000  Level Washington Center
08:03PM 39.1367 -76.2500 42° Northeast 448 516 27,000  Level Washington Center
08:04PM 39.2331 -76.1383 42° Northeast 453 521 27,000 -540 Level Washington Center
08:05PM 39.3253 -76.0261 43° Northeast 453 521 26,000 -1,800 Descending Washington Center
08:06PM 39.4194 -75.9192 41° Northeast 448 516 23,500 -2,460 Descending Washington Center
08:07PM 39.5133 -75.8067 43° Northeast 448 516 21,100 -1,560 Descending Washington Center
08:08PM 39.5969 -75.7072 42° Northeast 435 501 20,400 -600 Descending Washington Center
08:09PM 39.6822 -75.6022 43° Northeast 422 486 19,900 -720 Descending Washington Center
08:10PM 39.7719 -75.4997 41° Northeast 422 486 19,000 -1,440 Descending Washington Center
08:11PM 39.8550 -75.3942 44° Northeast 422 486 17,100 -1,620 Descending Washington Center
08:12PM 39.9278 -75.3075 42° Northeast 411 473 15,800 -1,440 Descending Washington Center
08:13PM 40.0089 -75.2122 42° Northeast 398 458 14,300 -1,800 Descending Washington Center
08:14PM 40.0856 -75.1169 44° Northeast 391 450 12,300 -1,860 Descending Washington Center
08:15PM 40.1558 -75.0297 43° Northeast 372 428 10,600 -1,380 Descending Washington Center
08:16PM 40.2222 -74.9503 42° Northeast 339 390 9,600 -1,140 Descending Washington Center
08:17PM 40.2833 -74.8500 51° Northeast 282 325 8,200 -1,140 Descending New York TRACON
08:19PM 40.4000 -74.7000 44° Northeast 282 325 6,100 -780 Descending New York TRACON
08:20PM 40.4667 -74.6500 30° Northeast 278 320 6,000 -60 Descending New York TRACON
08:21PM 40.5333 -74.6333 11° North 246 283 6,000 -60 Level New York TRACON
08:22PM 40.6000 -74.6167 11° North 240 276 5,900 -540 Descending New York TRACON
08:23PM 40.6667 -74.5833 21° North 251 289 5,000 -300 Descending New York TRACON
08:25PM 40.7833 -74.5333 18° North 247 284 5,000  Level New York TRACON
08:26PM 40.8500 -74.4833 30° Northeast 267 307 5,000  Level New York TRACON
08:27PM 40.9167 -74.4333 30° Northeast 269 310 5,000  Level New York TRACON
08:28PM 40.9833 -74.3833 30° Northeast 268 308 5,000  Level New York TRACON